sensor_id;sensor_type;location;lat;lon;timestamp;temperature;humidity
31369;DHT22;18004;48.416;10.066;2022-10-16T00:00:43;14.40;99.90
31369;DHT22;18004;48.416;10.066;2022-10-16T00:03:09;14.40;99.90
31369;DHT22;18004;48.416;10.066;2022-10-16T00:05:40;14.30;99.90
31369;DHT22;18004;48.416;10.066;2022-10-16T00:08:06;14.40;99.90
31369;DHT22;18004;48.416;10.066;2022-10-16T00:10:31;14.30;99.90
31369;DHT22;18004;48.416;10.066;2022-10-16T00:12:57;14.30;99.90
31369;DHT22;18004;48.416;10.066;2022-10-16T00:15:22;14.30;99.90
31369;DHT22;18004;48.416;10.066;2022-10-16T00:17:48;14.30;99.90
31369;DHT22;18004;48.416;10.066;2022-10-16T00:20:14;14.30;99.90
31369;DHT22;18004;48.416;10.066;2022-10-16T00:22:39;14.30;99.90
31369;DHT22;18004;48.416;10.066;2022-10-16T00:25:05;14.30;99.90
31369;DHT22;18004;48.416;10.066;2022-10-16T00:27:31;14.20;99.90
31369;DHT22;18004;48.416;10.066;2022-10-16T00:29:57;14.20;99.90
31369;DHT22;18004;48.416;10.066;2022-10-16T00:32:22;14.20;99.90
31369;DHT22;18004;48.416;10.066;2022-10-16T00:34:48;14.10;99.90
31369;DHT22;18004;48.416;10.066;2022-10-16T00:37:13;14.10;99.90
31369;DHT22;18004;48.416;10.066;2022-10-16T00:39:39;14.10;99.90
31369;DHT22;18004;48.416;10.066;2022-10-16T00:42:05;14.10;99.90
31369;DHT22;18004;48.416;10.066;2022-10-16T00:44:41;14.00;99.90
31369;DHT22;18004;48.416;10.066;2022-10-16T00:47:11;14.10;99.90
31369;DHT22;18004;48.416;10.066;2022-10-16T00:49:38;14.10;99.90
31369;DHT22;18004;48.416;10.066;2022-10-16T00:52:04;14.00;99.90
31369;DHT22;18004;48.416;10.066;2022-10-16T00:54:30;14.10;99.90
31369;DHT22;18004;48.416;10.066;2022-10-16T00:56:58;14.00;99.90
31369;DHT22;18004;48.416;10.066;2022-10-16T00:59:26;14.00;99.90
31369;DHT22;18004;48.416;10.066;2022-10-16T01:01:53;14.00;99.90
31369;DHT22;18004;48.416;10.066;2022-10-16T01:04:18;14.00;99.90
31369;DHT22;18004;48.416;10.066;2022-10-16T01:06:51;14.00;99.90
31369;DHT22;18004;48.416;10.066;2022-10-16T01:11:59;13.90;99.90
31369;DHT22;18004;48.416;10.066;2022-10-16T01:14:30;13.90;99.90
31369;DHT22;18004;48.416;10.066;2022-10-16T01:17:02;13.80;99.90
31369;DHT22;18004;48.416;10.066;2022-10-16T01:22:04;13.80;99.90
31369;DHT22;18004;48.416;10.066;2022-10-16T01:30:07;13.60;99.90
31369;DHT22;18004;48.416;10.066;2022-10-16T01:32:42;13.60;99.90
31369;DHT22;18004;48.416;10.066;2022-10-16T01:37:36;13.50;99.90
31369;DHT22;18004;48.416;10.066;2022-10-16T01:40:05;13.50;99.90
31369;DHT22;18004;48.416;10.066;2022-10-16T01:42:34;13.50;99.90
31369;DHT22;18004;48.416;10.066;2022-10-16T01:45:00;13.50;99.90
31369;DHT22;18004;48.416;10.066;2022-10-16T01:47:27;13.50;99.90
31369;DHT22;18004;48.416;10.066;2022-10-16T01:49:53;13.50;99.90
31369;DHT22;18004;48.416;10.066;2022-10-16T01:52:20;13.50;99.90
31369;DHT22;18004;48.416;10.066;2022-10-16T01:54:47;13.50;99.90
31369;DHT22;18004;48.416;10.066;2022-10-16T01:57:15;13.50;99.90
31369;DHT22;18004;48.416;10.066;2022-10-16T01:59:46;13.50;99.90
31369;DHT22;18004;48.416;10.066;2022-10-16T02:02:12;13.50;99.90
31369;DHT22;18004;48.416;10.066;2022-10-16T02:04:42;13.50;99.90
31369;DHT22;18004;48.416;10.066;2022-10-16T02:07:09;13.50;99.90
31369;DHT22;18004;48.416;10.066;2022-10-16T02:09:35;13.50;99.90
31369;DHT22;18004;48.416;10.066;2022-10-16T02:12:03;13.50;99.90
31369;DHT22;18004;48.416;10.066;2022-10-16T02:14:32;13.50;99.90
31369;DHT22;18004;48.416;10.066;2022-10-16T02:16:58;13.50;99.90
31369;DHT22;18004;48.416;10.066;2022-10-16T02:19:24;13.50;99.90
31369;DHT22;18004;48.416;10.066;2022-10-16T02:21:51;13.50;99.90
31369;DHT22;18004;48.416;10.066;2022-10-16T02:24:28;13.50;99.90
31369;DHT22;18004;48.416;10.066;2022-10-16T02:27:11;13.50;99.90
31369;DHT22;18004;48.416;10.066;2022-10-16T02:29:40;13.50;99.90
31369;DHT22;18004;48.416;10.066;2022-10-16T02:32:10;13.50;99.90
31369;DHT22;18004;48.416;10.066;2022-10-16T02:34:38;13.40;99.90
31369;DHT22;18004;48.416;10.066;2022-10-16T02:37:05;13.50;99.90
31369;DHT22;18004;48.416;10.066;2022-10-16T02:39:32;13.40;99.90
31369;DHT22;18004;48.416;10.066;2022-10-16T02:41:57;13.40;99.90
31369;DHT22;18004;48.416;10.066;2022-10-16T02:44:23;13.40;99.90
31369;DHT22;18004;48.416;10.066;2022-10-16T02:46:49;13.40;99.90
31369;DHT22;18004;48.416;10.066;2022-10-16T02:49:14;13.40;99.90
31369;DHT22;18004;48.416;10.066;2022-10-16T02:51:40;13.40;99.90
31369;DHT22;18004;48.416;10.066;2022-10-16T02:54:06;13.40;99.90
31369;DHT22;18004;48.416;10.066;2022-10-16T02:56:31;13.40;99.90
31369;DHT22;18004;48.416;10.066;2022-10-16T02:58:57;13.40;99.90
31369;DHT22;18004;48.416;10.066;2022-10-16T03:01:23;13.40;99.90
31369;DHT22;18004;48.416;10.066;2022-10-16T03:03:49;13.50;99.90
31369;DHT22;18004;48.416;10.066;2022-10-16T03:06:15;13.40;99.90
31369;DHT22;18004;48.416;10.066;2022-10-16T03:08:40;13.50;99.90
31369;DHT22;18004;48.416;10.066;2022-10-16T03:11:06;13.50;99.90
31369;DHT22;18004;48.416;10.066;2022-10-16T03:13:32;13.50;99.90
31369;DHT22;18004;48.416;10.066;2022-10-16T03:15:57;13.50;99.90
31369;DHT22;18004;48.416;10.066;2022-10-16T03:18:23;13.50;99.90
31369;DHT22;18004;48.416;10.066;2022-10-16T03:20:49;13.50;99.90
31369;DHT22;18004;48.416;10.066;2022-10-16T03:23:14;13.50;99.90
31369;DHT22;18004;48.416;10.066;2022-10-16T03:25:40;13.50;99.90
31369;DHT22;18004;48.416;10.066;2022-10-16T03:28:06;13.50;99.90
31369;DHT22;18004;48.416;10.066;2022-10-16T03:30:31;13.50;99.90
31369;DHT22;18004;48.416;10.066;2022-10-16T03:32:57;13.50;99.90
31369;DHT22;18004;48.416;10.066;2022-10-16T03:35:23;13.50;99.90
31369;DHT22;18004;48.416;10.066;2022-10-16T03:37:49;13.40;99.90
31369;DHT22;18004;48.416;10.066;2022-10-16T03:40:15;13.40;99.90
31369;DHT22;18004;48.416;10.066;2022-10-16T03:42:41;13.40;99.90
31369;DHT22;18004;48.416;10.066;2022-10-16T03:45:07;13.50;99.90
31369;DHT22;18004;48.416;10.066;2022-10-16T03:47:33;13.40;99.90
31369;DHT22;18004;48.416;10.066;2022-10-16T03:49:59;13.50;99.90
31369;DHT22;18004;48.416;10.066;2022-10-16T03:52:25;13.40;99.90
31369;DHT22;18004;48.416;10.066;2022-10-16T03:54:50;13.50;99.90
31369;DHT22;18004;48.416;10.066;2022-10-16T03:57:16;13.50;99.90
31369;DHT22;18004;48.416;10.066;2022-10-16T03:59:42;13.40;99.90
31369;DHT22;18004;48.416;10.066;2022-10-16T04:02:07;13.40;99.90
31369;DHT22;18004;48.416;10.066;2022-10-16T04:04:33;13.40;99.90
31369;DHT22;18004;48.416;10.066;2022-10-16T04:06:59;13.30;99.90
31369;DHT22;18004;48.416;10.066;2022-10-16T04:09:25;13.30;99.90
31369;DHT22;18004;48.416;10.066;2022-10-16T04:11:51;13.30;99.90
31369;DHT22;18004;48.416;10.066;2022-10-16T04:14:16;13.30;99.90
31369;DHT22;18004;48.416;10.066;2022-10-16T04:16:42;13.30;99.90
31369;DHT22;18004;48.416;10.066;2022-10-16T04:19:08;13.30;99.90
31369;DHT22;18004;48.416;10.066;2022-10-16T04:21:34;13.30;99.90
31369;DHT22;18004;48.416;10.066;2022-10-16T04:24:00;13.30;99.90
31369;DHT22;18004;48.416;10.066;2022-10-16T04:26:25;13.30;99.90
31369;DHT22;18004;48.416;10.066;2022-10-16T04:28:51;13.20;99.90
31369;DHT22;18004;48.416;10.066;2022-10-16T04:31:16;13.20;99.90
31369;DHT22;18004;48.416;10.066;2022-10-16T04:33:42;13.20;99.90
31369;DHT22;18004;48.416;10.066;2022-10-16T04:36:08;13.20;99.90
31369;DHT22;18004;48.416;10.066;2022-10-16T04:38:34;13.10;99.90
31369;DHT22;18004;48.416;10.066;2022-10-16T04:40:59;13.10;99.90
31369;DHT22;18004;48.416;10.066;2022-10-16T04:43:28;13.10;99.90
31369;DHT22;18004;48.416;10.066;2022-10-16T04:45:54;13.10;99.90
31369;DHT22;18004;48.416;10.066;2022-10-16T04:48:20;13.10;99.90
31369;DHT22;18004;48.416;10.066;2022-10-16T04:50:46;13.00;99.90
31369;DHT22;18004;48.416;10.066;2022-10-16T04:53:11;13.10;99.90
31369;DHT22;18004;48.416;10.066;2022-10-16T04:55:37;13.00;99.90
31369;DHT22;18004;48.416;10.066;2022-10-16T04:58:03;13.00;99.90
31369;DHT22;18004;48.416;10.066;2022-10-16T05:00:29;13.00;99.90
31369;DHT22;18004;48.416;10.066;2022-10-16T05:02:55;13.00;99.90
31369;DHT22;18004;48.416;10.066;2022-10-16T05:05:20;13.00;99.90
31369;DHT22;18004;48.416;10.066;2022-10-16T05:07:46;12.90;99.90
31369;DHT22;18004;48.416;10.066;2022-10-16T05:10:12;12.90;99.90
31369;DHT22;18004;48.416;10.066;2022-10-16T05:12:38;12.90;99.90
31369;DHT22;18004;48.416;10.066;2022-10-16T05:15:04;12.90;99.90
31369;DHT22;18004;48.416;10.066;2022-10-16T05:17:29;12.80;99.90
31369;DHT22;18004;48.416;10.066;2022-10-16T05:19:55;12.80;99.90
31369;DHT22;18004;48.416;10.066;2022-10-16T05:22:21;12.80;99.90
31369;DHT22;18004;48.416;10.066;2022-10-16T05:24:47;12.80;99.90
31369;DHT22;18004;48.416;10.066;2022-10-16T05:27:12;12.70;99.90
31369;DHT22;18004;48.416;10.066;2022-10-16T05:29:47;12.70;99.90
31369;DHT22;18004;48.416;10.066;2022-10-16T05:32:13;12.70;99.90
31369;DHT22;18004;48.416;10.066;2022-10-16T05:34:39;12.70;99.90
31369;DHT22;18004;48.416;10.066;2022-10-16T05:37:05;12.70;99.90
31369;DHT22;18004;48.416;10.066;2022-10-16T05:39:30;12.70;99.90
31369;DHT22;18004;48.416;10.066;2022-10-16T05:41:56;12.70;99.90
31369;DHT22;18004;48.416;10.066;2022-10-16T05:44:21;12.70;99.90
31369;DHT22;18004;48.416;10.066;2022-10-16T05:46:47;12.70;99.90
31369;DHT22;18004;48.416;10.066;2022-10-16T05:49:13;12.70;99.90
31369;DHT22;18004;48.416;10.066;2022-10-16T05:51:39;12.70;99.90
31369;DHT22;18004;48.416;10.066;2022-10-16T05:54:04;12.70;99.90
31369;DHT22;18004;48.416;10.066;2022-10-16T05:56:30;12.70;99.90
31369;DHT22;18004;48.416;10.066;2022-10-16T05:58:56;12.70;99.90
31369;DHT22;18004;48.416;10.066;2022-10-16T06:01:21;12.70;99.90
31369;DHT22;18004;48.416;10.066;2022-10-16T06:03:50;12.70;99.90
31369;DHT22;18004;48.416;10.066;2022-10-16T06:06:19;12.70;99.90
31369;DHT22;18004;48.416;10.066;2022-10-16T06:08:46;12.70;99.90
31369;DHT22;18004;48.416;10.066;2022-10-16T06:11:14;12.70;99.90
31369;DHT22;18004;48.416;10.066;2022-10-16T06:13:40;12.70;99.90
31369;DHT22;18004;48.416;10.066;2022-10-16T06:16:11;12.70;99.90
31369;DHT22;18004;48.416;10.066;2022-10-16T06:18:37;12.70;99.90
31369;DHT22;18004;48.416;10.066;2022-10-16T06:21:10;12.70;99.90
31369;DHT22;18004;48.416;10.066;2022-10-16T06:23:36;12.80;99.90
31369;DHT22;18004;48.416;10.066;2022-10-16T06:26:06;12.80;99.90
31369;DHT22;18004;48.416;10.066;2022-10-16T06:28:31;12.80;99.90
31369;DHT22;18004;48.416;10.066;2022-10-16T06:30:58;12.80;99.90
31369;DHT22;18004;48.416;10.066;2022-10-16T06:33:24;12.90;99.90
31369;DHT22;18004;48.416;10.066;2022-10-16T06:35:49;13.00;99.90
31369;DHT22;18004;48.416;10.066;2022-10-16T06:38:15;12.90;99.90
31369;DHT22;18004;48.416;10.066;2022-10-16T06:40:41;13.00;99.90
31369;DHT22;18004;48.416;10.066;2022-10-16T06:43:07;13.00;99.90
31369;DHT22;18004;48.416;10.066;2022-10-16T06:45:32;13.00;99.90
31369;DHT22;18004;48.416;10.066;2022-10-16T06:47:58;13.10;99.90
31369;DHT22;18004;48.416;10.066;2022-10-16T06:50:23;13.00;99.90
31369;DHT22;18004;48.416;10.066;2022-10-16T06:52:49;13.10;99.90
31369;DHT22;18004;48.416;10.066;2022-10-16T06:55:15;13.10;99.90
31369;DHT22;18004;48.416;10.066;2022-10-16T06:57:42;13.20;99.90
31369;DHT22;18004;48.416;10.066;2022-10-16T07:00:09;13.30;99.90
31369;DHT22;18004;48.416;10.066;2022-10-16T07:02:34;13.30;99.90
31369;DHT22;18004;48.416;10.066;2022-10-16T07:05:00;13.30;99.90
31369;DHT22;18004;48.416;10.066;2022-10-16T07:07:26;13.40;99.90
31369;DHT22;18004;48.416;10.066;2022-10-16T07:09:52;13.40;99.90
31369;DHT22;18004;48.416;10.066;2022-10-16T07:12:17;13.40;99.90
31369;DHT22;18004;48.416;10.066;2022-10-16T07:14:43;13.40;99.90
31369;DHT22;18004;48.416;10.066;2022-10-16T07:17:09;13.50;99.90
31369;DHT22;18004;48.416;10.066;2022-10-16T07:19:34;13.60;99.90
31369;DHT22;18004;48.416;10.066;2022-10-16T07:22:00;13.60;99.90
31369;DHT22;18004;48.416;10.066;2022-10-16T07:24:26;13.60;99.90
31369;DHT22;18004;48.416;10.066;2022-10-16T07:26:52;13.70;99.90
31369;DHT22;18004;48.416;10.066;2022-10-16T07:29:19;13.70;99.90
31369;DHT22;18004;48.416;10.066;2022-10-16T07:31:45;13.80;99.90
31369;DHT22;18004;48.416;10.066;2022-10-16T07:34:11;13.80;99.90
31369;DHT22;18004;48.416;10.066;2022-10-16T07:36:37;13.90;99.90
31369;DHT22;18004;48.416;10.066;2022-10-16T07:39:03;14.00;99.90
31369;DHT22;18004;48.416;10.066;2022-10-16T07:41:29;14.00;99.90
31369;DHT22;18004;48.416;10.066;2022-10-16T07:43:55;14.10;99.90
31369;DHT22;18004;48.416;10.066;2022-10-16T07:46:22;14.10;99.90
31369;DHT22;18004;48.416;10.066;2022-10-16T07:48:48;14.20;99.90
31369;DHT22;18004;48.416;10.066;2022-10-16T07:51:15;14.20;99.90
31369;DHT22;18004;48.416;10.066;2022-10-16T07:53:41;14.20;99.90
31369;DHT22;18004;48.416;10.066;2022-10-16T07:56:07;14.20;99.90
31369;DHT22;18004;48.416;10.066;2022-10-16T07:58:33;14.30;99.90
31369;DHT22;18004;48.416;10.066;2022-10-16T08:01:03;14.30;99.90
31369;DHT22;18004;48.416;10.066;2022-10-16T08:03:28;14.30;99.90
31369;DHT22;18004;48.416;10.066;2022-10-16T08:05:56;14.40;99.90
31369;DHT22;18004;48.416;10.066;2022-10-16T08:08:22;14.40;99.90
31369;DHT22;18004;48.416;10.066;2022-10-16T08:10:47;14.40;99.90
31369;DHT22;18004;48.416;10.066;2022-10-16T08:13:13;14.50;99.90
31369;DHT22;18004;48.416;10.066;2022-10-16T08:15:43;14.50;99.90
31369;DHT22;18004;48.416;10.066;2022-10-16T08:18:09;14.50;99.90
31369;DHT22;18004;48.416;10.066;2022-10-16T08:20:34;14.60;99.90
31369;DHT22;18004;48.416;10.066;2022-10-16T08:23:00;14.60;99.90
31369;DHT22;18004;48.416;10.066;2022-10-16T08:25:26;14.70;99.90
31369;DHT22;18004;48.416;10.066;2022-10-16T08:27:52;14.70;99.90
31369;DHT22;18004;48.416;10.066;2022-10-16T08:30:18;14.70;99.90
31369;DHT22;18004;48.416;10.066;2022-10-16T08:32:44;14.70;99.90
31369;DHT22;18004;48.416;10.066;2022-10-16T08:35:11;14.80;99.90
31369;DHT22;18004;48.416;10.066;2022-10-16T08:37:37;14.90;99.90
31369;DHT22;18004;48.416;10.066;2022-10-16T08:40:03;14.90;99.90
31369;DHT22;18004;48.416;10.066;2022-10-16T08:45:25;15.00;99.90
31369;DHT22;18004;48.416;10.066;2022-10-16T08:47:59;15.00;99.90
31369;DHT22;18004;48.416;10.066;2022-10-16T08:50:27;15.10;99.90
31369;DHT22;18004;48.416;10.066;2022-10-16T08:52:53;15.10;99.90
31369;DHT22;18004;48.416;10.066;2022-10-16T08:55:30;15.20;99.90
31369;DHT22;18004;48.416;10.066;2022-10-16T08:57:58;15.20;99.90
31369;DHT22;18004;48.416;10.066;2022-10-16T09:00:23;15.30;99.90
31369;DHT22;18004;48.416;10.066;2022-10-16T09:05:18;15.40;99.90
31369;DHT22;18004;48.416;10.066;2022-10-16T09:10:21;15.50;99.90
31369;DHT22;18004;48.416;10.066;2022-10-16T09:20:36;15.70;99.90
31369;DHT22;18004;48.416;10.066;2022-10-16T09:25:31;15.90;99.90
31369;DHT22;18004;48.416;10.066;2022-10-16T09:27:57;15.90;99.90
31369;DHT22;18004;48.416;10.066;2022-10-16T09:30:23;15.90;99.90
31369;DHT22;18004;48.416;10.066;2022-10-16T09:32:52;16.00;99.90
31369;DHT22;18004;48.416;10.066;2022-10-16T09:36:00;16.00;99.90
31369;DHT22;18004;48.416;10.066;2022-10-16T09:38:07;16.00;99.90
31369;DHT22;18004;48.416;10.066;2022-10-16T09:40:34;16.10;99.90
31369;DHT22;18004;48.416;10.066;2022-10-16T09:45:33;16.20;99.90
31369;DHT22;18004;48.416;10.066;2022-10-16T09:48:00;16.30;99.90
31369;DHT22;18004;48.416;10.066;2022-10-16T09:50:27;16.30;99.90
31369;DHT22;18004;48.416;10.066;2022-10-16T09:53:08;16.50;99.90
31369;DHT22;18004;48.416;10.066;2022-10-16T09:55:35;16.60;99.90
31369;DHT22;18004;48.416;10.066;2022-10-16T09:58:01;16.70;99.90
31369;DHT22;18004;48.416;10.066;2022-10-16T10:00:27;16.80;99.90
31369;DHT22;18004;48.416;10.066;2022-10-16T10:02:53;16.90;99.90
31369;DHT22;18004;48.416;10.066;2022-10-16T10:05:21;17.00;99.90
31369;DHT22;18004;48.416;10.066;2022-10-16T10:07:52;17.10;99.90
31369;DHT22;18004;48.416;10.066;2022-10-16T10:10:23;17.20;99.90
31369;DHT22;18004;48.416;10.066;2022-10-16T10:12:49;17.30;99.90
31369;DHT22;18004;48.416;10.066;2022-10-16T10:15:15;17.30;99.90
31369;DHT22;18004;48.416;10.066;2022-10-16T10:17:48;17.40;99.90
31369;DHT22;18004;48.416;10.066;2022-10-16T10:20:30;17.50;99.90
31369;DHT22;18004;48.416;10.066;2022-10-16T10:22:58;17.60;99.90
31369;DHT22;18004;48.416;10.066;2022-10-16T10:25:26;17.70;99.90
31369;DHT22;18004;48.416;10.066;2022-10-16T10:30:29;17.90;99.90
31369;DHT22;18004;48.416;10.066;2022-10-16T10:38:28;18.20;99.90
31369;DHT22;18004;48.416;10.066;2022-10-16T10:41:00;18.30;99.90
31369;DHT22;18004;48.416;10.066;2022-10-16T10:46:23;18.40;99.90
31369;DHT22;18004;48.416;10.066;2022-10-16T10:48:57;18.40;99.50
31369;DHT22;18004;48.416;10.066;2022-10-16T10:59:22;18.50;99.70
31369;DHT22;18004;48.416;10.066;2022-10-16T11:02:00;18.60;99.30
31369;DHT22;18004;48.416;10.066;2022-10-16T11:07:15;18.60;98.40
31369;DHT22;18004;48.416;10.066;2022-10-16T11:09:44;18.60;98.70
31369;DHT22;18004;48.416;10.066;2022-10-16T11:12:14;18.60;98.30
31369;DHT22;18004;48.416;10.066;2022-10-16T11:17:11;18.70;98.80
31369;DHT22;18004;48.416;10.066;2022-10-16T11:22:18;18.80;97.60
31369;DHT22;18004;48.416;10.066;2022-10-16T11:27:12;18.90;98.40
31369;DHT22;18004;48.416;10.066;2022-10-16T11:29:43;18.90;98.60
31369;DHT22;18004;48.416;10.066;2022-10-16T11:32:15;19.00;97.40
31369;DHT22;18004;48.416;10.066;2022-10-16T11:34:45;19.00;97.60
31369;DHT22;18004;48.416;10.066;2022-10-16T11:37:19;19.10;97.50
31369;DHT22;18004;48.416;10.066;2022-10-16T11:39:47;19.10;96.50
31369;DHT22;18004;48.416;10.066;2022-10-16T11:42:33;19.10;96.50
31369;DHT22;18004;48.416;10.066;2022-10-16T11:50:50;19.30;96.90
31369;DHT22;18004;48.416;10.066;2022-10-16T11:52:58;19.40;96.80
31369;DHT22;18004;48.416;10.066;2022-10-16T11:55:27;19.60;96.70
31369;DHT22;18004;48.416;10.066;2022-10-16T11:58:02;19.90;95.00
31369;DHT22;18004;48.416;10.066;2022-10-16T12:00:31;20.10;94.80
31369;DHT22;18004;48.416;10.066;2022-10-16T12:03:15;20.30;93.90
31369;DHT22;18004;48.416;10.066;2022-10-16T12:08:27;20.40;92.80
31369;DHT22;18004;48.416;10.066;2022-10-16T12:11:05;20.50;92.50
31369;DHT22;18004;48.416;10.066;2022-10-16T12:13:32;20.70;92.50
31369;DHT22;18004;48.416;10.066;2022-10-16T12:18:40;20.80;91.80
31369;DHT22;18004;48.416;10.066;2022-10-16T12:21:06;21.00;90.70
31369;DHT22;18004;48.416;10.066;2022-10-16T12:23:36;21.20;87.50
31369;DHT22;18004;48.416;10.066;2022-10-16T12:26:02;21.30;89.30
31369;DHT22;18004;48.416;10.066;2022-10-16T12:28:29;21.50;86.00
31369;DHT22;18004;48.416;10.066;2022-10-16T12:30:59;21.50;87.00
31369;DHT22;18004;48.416;10.066;2022-10-16T12:33:26;21.60;85.30
31369;DHT22;18004;48.416;10.066;2022-10-16T12:35:52;21.50;81.80
31369;DHT22;18004;48.416;10.066;2022-10-16T12:38:26;21.60;82.70
31369;DHT22;18004;48.416;10.066;2022-10-16T12:41:06;21.60;83.50
31369;DHT22;18004;48.416;10.066;2022-10-16T12:43:37;21.70;81.40
31369;DHT22;18004;48.416;10.066;2022-10-16T12:46:33;21.80;79.20
31369;DHT22;18004;48.416;10.066;2022-10-16T12:48:49;21.70;83.70
31369;DHT22;18004;48.416;10.066;2022-10-16T12:54:00;22.00;81.10
31369;DHT22;18004;48.416;10.066;2022-10-16T12:56:30;22.10;82.40
31369;DHT22;18004;48.416;10.066;2022-10-16T12:59:06;22.10;79.70
31369;DHT22;18004;48.416;10.066;2022-10-16T13:01:37;22.10;81.30
31369;DHT22;18004;48.416;10.066;2022-10-16T13:11:47;22.50;78.20
31369;DHT22;18004;48.416;10.066;2022-10-16T13:19:23;22.50;73.60
31369;DHT22;18004;48.416;10.066;2022-10-16T13:21:59;22.60;74.70
31369;DHT22;18004;48.416;10.066;2022-10-16T13:29:21;22.90;65.50
31369;DHT22;18004;48.416;10.066;2022-10-16T13:31:47;22.80;56.20
31369;DHT22;18004;48.416;10.066;2022-10-16T13:34:14;22.80;59.00
31369;DHT22;18004;48.416;10.066;2022-10-16T13:41:35;22.90;51.70
31369;DHT22;18004;48.416;10.066;2022-10-16T13:44:01;23.00;51.50
31369;DHT22;18004;48.416;10.066;2022-10-16T13:46:26;23.00;46.50
31369;DHT22;18004;48.416;10.066;2022-10-16T13:48:59;23.00;49.00
31369;DHT22;18004;48.416;10.066;2022-10-16T13:51:25;22.90;49.20
31369;DHT22;18004;48.416;10.066;2022-10-16T13:53:51;23.00;43.00
31369;DHT22;18004;48.416;10.066;2022-10-16T13:56:18;23.00;41.60
31369;DHT22;18004;48.416;10.066;2022-10-16T13:58:44;23.00;34.60
31369;DHT22;18004;48.416;10.066;2022-10-16T14:01:20;22.90;32.80
31369;DHT22;18004;48.416;10.066;2022-10-16T14:03:48;22.80;41.90
31369;DHT22;18004;48.416;10.066;2022-10-16T14:06:15;22.90;43.00
31369;DHT22;18004;48.416;10.066;2022-10-16T14:08:43;22.90;36.00
31369;DHT22;18004;48.416;10.066;2022-10-16T14:11:09;22.90;33.60
31369;DHT22;18004;48.416;10.066;2022-10-16T14:13:45;22.90;36.30
31369;DHT22;18004;48.416;10.066;2022-10-16T14:16:16;22.90;32.80
31369;DHT22;18004;48.416;10.066;2022-10-16T14:18:44;23.00;36.60
31369;DHT22;18004;48.416;10.066;2022-10-16T14:21:14;23.00;36.00
31369;DHT22;18004;48.416;10.066;2022-10-16T14:23:41;23.00;38.10
31369;DHT22;18004;48.416;10.066;2022-10-16T14:28:33;23.10;38.20
31369;DHT22;18004;48.416;10.066;2022-10-16T14:31:00;23.10;33.70
31369;DHT22;18004;48.416;10.066;2022-10-16T14:38:30;23.30;34.20
31369;DHT22;18004;48.416;10.066;2022-10-16T14:40:56;23.40;34.90
31369;DHT22;18004;48.416;10.066;2022-10-16T14:43:32;23.40;34.20
31369;DHT22;18004;48.416;10.066;2022-10-16T14:45:59;23.30;32.80
31369;DHT22;18004;48.416;10.066;2022-10-16T14:48:25;23.20;34.30
31369;DHT22;18004;48.416;10.066;2022-10-16T14:50:51;23.10;33.60
31369;DHT22;18004;48.416;10.066;2022-10-16T14:53:16;23.10;34.50
31369;DHT22;18004;48.416;10.066;2022-10-16T14:55:42;23.10;35.50
31369;DHT22;18004;48.416;10.066;2022-10-16T14:58:13;23.10;34.80
31369;DHT22;18004;48.416;10.066;2022-10-16T15:00:40;23.00;37.90
31369;DHT22;18004;48.416;10.066;2022-10-16T15:03:06;22.90;35.90
31369;DHT22;18004;48.416;10.066;2022-10-16T15:05:32;22.90;38.00
31369;DHT22;18004;48.416;10.066;2022-10-16T15:07:57;22.80;34.50
31369;DHT22;18004;48.416;10.066;2022-10-16T15:10:24;22.70;36.00
31369;DHT22;18004;48.416;10.066;2022-10-16T15:12:50;22.70;38.40
31369;DHT22;18004;48.416;10.066;2022-10-16T15:15:26;22.70;42.60
31369;DHT22;18004;48.416;10.066;2022-10-16T15:17:54;22.60;40.30
31369;DHT22;18004;48.416;10.066;2022-10-16T15:20:26;22.50;44.00
31369;DHT22;18004;48.416;10.066;2022-10-16T15:22:52;22.50;46.60
31369;DHT22;18004;48.416;10.066;2022-10-16T15:27:59;22.30;47.30
31369;DHT22;18004;48.416;10.066;2022-10-16T15:30:25;22.30;50.10
31369;DHT22;18004;48.416;10.066;2022-10-16T15:32:51;22.10;52.50
31369;DHT22;18004;48.416;10.066;2022-10-16T15:35:16;22.00;54.50
31369;DHT22;18004;48.416;10.066;2022-10-16T15:37:42;22.00;56.50
31369;DHT22;18004;48.416;10.066;2022-10-16T15:40:08;21.70;59.00
31369;DHT22;18004;48.416;10.066;2022-10-16T15:42:34;21.70;61.90
31369;DHT22;18004;48.416;10.066;2022-10-16T15:45:00;21.40;64.00
31369;DHT22;18004;48.416;10.066;2022-10-16T15:47:25;21.20;70.80
31369;DHT22;18004;48.416;10.066;2022-10-16T15:49:51;21.20;73.00
31369;DHT22;18004;48.416;10.066;2022-10-16T15:52:17;21.10;75.90
31369;DHT22;18004;48.416;10.066;2022-10-16T15:54:43;21.20;77.30
31369;DHT22;18004;48.416;10.066;2022-10-16T15:57:08;21.20;78.40
31369;DHT22;18004;48.416;10.066;2022-10-16T15:59:34;21.20;80.50
31369;DHT22;18004;48.416;10.066;2022-10-16T16:01:59;21.10;81.50
31369;DHT22;18004;48.416;10.066;2022-10-16T16:04:25;21.00;86.00
31369;DHT22;18004;48.416;10.066;2022-10-16T16:06:51;20.90;83.80
31369;DHT22;18004;48.416;10.066;2022-10-16T16:09:17;20.80;83.60
31369;DHT22;18004;48.416;10.066;2022-10-16T16:11:42;20.50;86.90
31369;DHT22;18004;48.416;10.066;2022-10-16T16:14:12;20.30;90.60
31369;DHT22;18004;48.416;10.066;2022-10-16T16:16:38;20.30;90.70
31369;DHT22;18004;48.416;10.066;2022-10-16T16:19:04;20.30;90.80
31369;DHT22;18004;48.416;10.066;2022-10-16T16:21:31;20.30;90.90
31369;DHT22;18004;48.416;10.066;2022-10-16T16:23:57;20.30;91.40
31369;DHT22;18004;48.416;10.066;2022-10-16T16:28:52;19.90;93.50
31369;DHT22;18004;48.416;10.066;2022-10-16T16:31:18;19.80;94.40
31369;DHT22;18004;48.416;10.066;2022-10-16T16:33:44;19.90;94.30
31369;DHT22;18004;48.416;10.066;2022-10-16T16:36:10;19.90;94.00
31369;DHT22;18004;48.416;10.066;2022-10-16T16:38:36;19.80;93.80
31369;DHT22;18004;48.416;10.066;2022-10-16T16:41:15;19.70;94.50
31369;DHT22;18004;48.416;10.066;2022-10-16T16:43:40;19.70;95.00
31369;DHT22;18004;48.416;10.066;2022-10-16T16:46:06;19.80;95.10
31369;DHT22;18004;48.416;10.066;2022-10-16T16:48:32;19.80;95.20
31369;DHT22;18004;48.416;10.066;2022-10-16T16:51:09;19.40;96.30
31369;DHT22;18004;48.416;10.066;2022-10-16T16:53:35;19.20;96.90
31369;DHT22;18004;48.416;10.066;2022-10-16T16:56:02;19.10;97.70
31369;DHT22;18004;48.416;10.066;2022-10-16T16:58:28;19.10;97.60
31369;DHT22;18004;48.416;10.066;2022-10-16T17:00:53;19.10;98.10
31369;DHT22;18004;48.416;10.066;2022-10-16T17:03:19;19.00;98.90
31369;DHT22;18004;48.416;10.066;2022-10-16T17:05:54;19.20;99.00
31369;DHT22;18004;48.416;10.066;2022-10-16T17:08:20;19.10;98.40